Impacts TAF Board
For situational awareness. Not to be used for flight planning purposes.
IDs:

KAUS - Austin/Bergstrom Int, TX, US

Issued at 1127 UTC 23 Sep 2020
Updated at 1709 UTC 23 Sep 2020
Potential Impact None Slight Moderate High
Time1653Z 23/18Z 23/19Z 23/20Z 23/21Z 23/22Z 23/23Z 24/00Z 24/01Z 24/02Z 24/03Z 24/04Z 24/05Z 24/06Z>>
Type OBS PRVL PRVL PRVL PRVL PRVL PRVL PRVL PRVL PRVL PRVL PRVL PRVL PRVL
VIS 10 >6 >6 >6 >6 >6 >6 >6 >6 >6 >6 >6 >6 >6
CIG 19 15 15 15 15 -- -- -- -- -- -- -- -- --
Cover OVC BKN BKN BKN BKN SCT SCT SCT SCT SCT SCT SCT SCT SCT
FltCat MVFR MVFR MVFR MVFR MVFR VFR VFR VFR VFR VFR VFR VFR VFR VFR
WX -- -- -- -- -- -- -- -- -- -- -- -- -- --
WDir 360 350 350 350 350 20 20 20 20 20 20 20 20 20
WSpd 14 13 13 13 13 10 10 10 10 10 10 10 10 10
WGst -- -- -- -- -- -- -- -- -- -- -- -- -- --
R17/35
XWnd 0 -2 -2 -2 -2 4 4 4 4 4 4 4 4 4
HWnd -14 -13 -13 -13 -13 -9 -9 -9 -9 -9 -9 -9 -9 -9
Raw TAF
KAUS 231127Z 2312/2418 35005KT P6SM BKN015
  FM231500 35013KT P6SM BKN015
  FM232200 02010KT P6SM SCT040
  FM240700 34003KT P6SM BKN025


Raw METAR
KAUS 231653Z 36014KT 10SM BKN019 OVC025 23/19 A2996 RMK AO2 SLP136 T02330189
KAUS 231553Z 36011KT 10SM OVC021 23/19 A2996 RMK AO2 SLP137 T02330194
KAUS 231453Z 34011KT 10SM FEW014 OVC024 23/19 A2994 RMK AO2 SLP131 T02280194 51015

METAR Board
Radar Display
Forecast Discussion
For situational awareness. Not to be used for flight planning purposes.